Terminal Aerodrome Forecast
Issued by NWS Duluth, MN

Home | Current Version | Previous Version | Text Only | Print | Product List | Glossary On
Versions: 1 2 3 4 5 6 7 8 9 10 11 12 13 14 15 16 17 18 19 20 21 22 23 24 25 26 27 28
000
FTUS43 KDLH 131100
TAFINL
TAF
KINL 131128Z 1312/1412 21003KT P6SM SKC
     FM131800 19012G18KT P6SM SCT050
     FM140100 17009KT P6SM SCT060 BKN110
     FM140600 18008KT P6SM VCSH BKN040 OVC060
      TEMPO 1409/1412 22007KT 5SM -SHRA BR OVC028=

USA.gov is the U.S. government's official web portal to all federal, state and local government web resources and services.